Bright Hope — HPTM — position and weather

sailwx.info

Track history (hours):
 
Tides and Currents Weather Stations Pressure Air Temp Water Temp Dewpoint Dewpoint Depression Visibility Wind Speed Wind Dir Waves Ship Positions

Bright Hope

Last reported at 2017-Mar-14 01:33 UTC. Time now 2017-Mar-30 18:23 UTC.
Position N 36°25' E 014°42'.
Warning: this ship's position is 16 days out of date.

Length 170 m; draft 9.2 m.

Type: Cargo ship. MMSI: 371117000.

Date/timePositionNaut miles runAvg speedWind from/ knotsBaromVisibWave heightAir tempDewpointWater temp
2017-Mar-14 01:33N 36°25' E 014°42'1211.7
2017-Mar-14 00:33N 36°29' E 014°28'1211.6
2017-Mar-13 23:33N 36°33' E 014°14'1111.5
2017-Mar-13 22:34N 36°36' E 014°00'1211.6
2017-Mar-13 21:33N 36°40' E 013°47'1211.8
2017-Mar-13 20:33N 36°43' E 013°33'1311.9
2017-Mar-13 19:29N 36°47' E 013°17'1112.0
2017-Mar-13 18:34N 36°51' E 013°05'4711.9
2017-Mar-13 14:33N 37°06' E 012°08'37312.4
2017-Mar-12 08:29N 37°10' E 004°21'1312.8
2017-Mar-12 07:30N 37°08' E 004°05'1212.8
2017-Mar-12 06:32N 37°06' E 003°50'1212.8
2017-Mar-12 05:33N 37°05' E 003°34'1312.7
2017-Mar-12 04:33N 37°03' E 003°19'1212.5
2017-Mar-12 03:34N 37°01' E 003°03'1211.9
2017-Mar-12 02:33N 36°59' E 002°48'1212.1
2017-Mar-12 01:33N 36°57' E 002°33'1212.0
2017-Mar-12 00:33N 36°55' E 002°19'1212.4
2017-Mar-11 23:33N 36°53' E 002°03'1212.3
2017-Mar-11 22:33N 36°51' E 001°48'1312.7
2017-Mar-11 21:33N 36°49' E 001°32'1313.2
2017-Mar-11 20:33N 36°47' E 001°16'1312.6
2017-Mar-11 19:33N 36°46' E 001°01'1312.6
2017-Mar-11 18:33N 36°44' E 000°45'1512.2
2017-Mar-11 17:19N 36°42' E 000°26'1012.4
2017-Mar-11 16:33N 36°40' E 000°15'1212.4
2017-Mar-11 15:33N 36°38' W 000°01'1412.1
2017-Mar-11 14:26N 36°36' W 000°17'6112.5
2017-Mar-11 09:33N 36°27' W 001°32'1412.7
2017-Mar-11 08:26N 36°25' W 001°50'1312.8
2017-Mar-11 07:27N 36°23' W 002°05'1213.1
2017-Mar-11 06:32N 36°21' W 002°20'11913.0
2017-Mar-10 21:22N 36°03' W 004°45'1214.3
2017-Mar-10 20:32N 36°02' W 004°60'1414.0
2017-Mar-10 19:33N 35°60' W 005°17'1514.6
2017-Mar-10 18:33N 35°56' W 005°34'7113.3
2017-Mar-10 13:12N 36°04' W 007°01'812.7
2017-Mar-10 12:33N 36°07' W 007°11'1312.7
2017-Mar-10 11:33N 36°10' W 007°26'1312.9
2017-Mar-10 10:33N 36°13' W 007°42'1312.8
2017-Mar-10 09:33N 36°16' W 007°57'1312.8
2017-Mar-10 08:33N 36°20' W 008°12'2512.6
2017-Mar-10 06:33N 36°26' W 008°43'1312.6
2017-Mar-10 05:33N 36°30' W 008°58'1212.3
2017-Mar-10 04:33N 36°33' W 009°12'1211.9
2017-Mar-10 03:33N 36°40' W 009°25'1212.2
2017-Mar-10 02:33N 36°50' W 009°33'1212.4
2017-Mar-10 01:33N 37°02' W 009°37'1412.2
2017-Mar-10 00:22N 37°16' W 009°41'1412.6
2017-Mar-09 23:17N 37°29' W 009°45'912.6
2017-Mar-09 22:33N 37°38' W 009°48'1312.7
2017-Mar-09 21:33N 37°51' W 009°51'1312.8
2017-Mar-09 20:33N 38°03' W 009°56'1312.7
2017-Mar-09 19:33N 38°15' W 009°60'1312.7
2017-Mar-09 18:33N 38°28' W 010°03'1312.6
2017-Mar-09 17:33N 38°40' W 010°06'1312.7
2017-Mar-09 16:33N 38°53' W 010°06'1312.9
2017-Mar-09 15:33N 39°06' W 010°06'1312.8
2017-Mar-09 14:33N 39°18' W 010°06'1312.7
2017-Mar-09 13:33N 39°31' W 010°06'1312.4
2017-Mar-09 12:29N 39°44' W 010°06'  
2017-Mar-06 19:33N 49°44' W 003°36'7 7.1
2017-Mar-06 18:30N 49°48' W 003°26'7 7.6
2017-Mar-06 17:32N 49°52' W 003°16'8 8.5
2017-Mar-06 16:33N 49°56' W 003°05'9 8.6
2017-Mar-06 15:33N 50°00' W 002°53'10 9.5
2017-Mar-06 14:33N 50°03' W 002°39'19 9.0
2017-Mar-06 12:24N 50°08' W 002°09'8 9.6
2017-Mar-06 11:33N 50°10' W 001°57'1111.2
2017-Mar-06 10:33N 50°13' W 001°40'1412.8
2017-Mar-06 09:27N 50°17' W 001°19'4014.0
2017-Mar-06 06:33N 50°28' W 000°18'1212.1
2017-Mar-06 05:33N 50°31' E 000°00'1110.5
2017-Mar-06 04:30N 50°34' E 000°17'8 8.0
2017-Mar-06 03:34N 50°36' E 000°28'7 7.0
2017-Mar-06 02:33N 50°40' E 000°38'9 9.0
2017-Mar-06 01:33N 50°45' E 000°49'10 9.7
2017-Mar-06 00:34N 50°51' E 001°02'1111.0
2017-Mar-05 23:33N 50°58' E 001°15'1111.3
2017-Mar-05 22:34N 51°05' E 001°29'1010.3
2017-Mar-05 21:34N 51°12' E 001°41'9 9.5
2017-Mar-05 20:33N 51°19' E 001°51'9 9.3
2017-Mar-05 19:33N 51°27' E 001°58'9 9.1
2017-Mar-05 18:34N 51°35' E 002°06'6210.0
2017-Mar-05 12:23N 52°03' E 003°35'911.5
2017-Mar-05 11:33N 52°03' E 003°50'9 9.5
2017-Mar-05 10:34N 51°59' E 004°04'1111.4
2017-Mar-05 09:34N 51°53' E 004°19'5 5.0
2017-Mar-05 08:34N 51°50' E 004°26'6 5.9
2017-Mar-05 07:34N 51°48' E 004°35'2 2.1
2017-Mar-05 06:34N 51°48' E 004°38'0 0.0
2017-Mar-05 05:33N 51°48' E 004°38'0 0.0
2017-Mar-05 04:34N 51°48' E 004°38'0 0.0
2017-Mar-05 03:33N 51°48' E 004°38'0 0.0
2017-Mar-05 02:33N 51°48' E 004°38'0 0.0
2017-Mar-05 01:34N 51°48' E 004°38'0 0.0
2017-Mar-05 00:33N 51°48' E 004°38'0 0.0
2017-Mar-04 23:33N 51°48' E 004°38'0 0.0
2017-Mar-04 22:33N 51°48' E 004°38'0 0.0
2017-Mar-04 21:33N 51°48' E 004°38'0 0.0
2017-Mar-04 20:34N 51°48' E 004°38'0 0.0
2017-Mar-04 19:33N 51°48' E 004°38'0 0.0
2017-Mar-04 18:34N 51°48' E 004°38'0 0.0
2017-Mar-04 17:34N 51°48' E 004°38'0 0.0
2017-Mar-04 16:33N 51°48' E 004°38'0 0.0
2017-Mar-04 15:34N 51°48' E 004°38'0 0.0
2017-Mar-04 14:33N 51°48' E 004°38'0 0.0
2017-Mar-04 13:34N 51°48' E 004°38'0 0.0
2017-Mar-04 12:34N 51°48' E 004°38'0 0.0
2017-Mar-04 11:33N 51°48' E 004°38'0 0.0
2017-Mar-04 10:33N 51°48' E 004°38'0 0.0
2017-Mar-04 09:33N 51°48' E 004°38'0 0.0
2017-Mar-04 08:34N 51°48' E 004°38'0 0.0
2017-Mar-04 07:33N 51°48' E 004°38'0 0.0
2017-Mar-04 06:33N 51°48' E 004°38'0 0.0
2017-Mar-04 05:33N 51°48' E 004°38'0 0.0
2017-Mar-04 04:33N 51°48' E 004°38'0 0.0
2017-Mar-04 03:34N 51°48' E 004°38'0 0.0
2017-Mar-04 02:34N 51°48' E 004°38'0 0.0
2017-Mar-04 01:33N 51°48' E 004°38'  
Track history (hours):
 
Tides and Currents Weather Stations Pressure Air Temp Water Temp Dewpoint Dewpoint Depression Visibility Wind Speed Wind Dir Waves Ship Positions

Bright Hope

Last reported at 2017-Mar-14 01:33 UTC. Time now 2017-Mar-30 18:23 UTC.
Position N 36°25' E 014°42'.
Warning: this ship's position is 16 days out of date.

Length 170 m; draft 9.2 m.

Type: Cargo ship. MMSI: 371117000.

Date/timePositionNaut miles runAvg speedWind from/ knotsBaromVisibWave heightAir tempDewpointWater temp
2017-Mar-14 01:33N 36°25' E 014°42'1211.7
2017-Mar-14 00:33N 36°29' E 014°28'1211.6
2017-Mar-13 23:33N 36°33' E 014°14'1111.5
2017-Mar-13 22:34N 36°36' E 014°00'1211.6
2017-Mar-13 21:33N 36°40' E 013°47'1211.8
2017-Mar-13 20:33N 36°43' E 013°33'1311.9
2017-Mar-13 19:29N 36°47' E 013°17'1112.0
2017-Mar-13 18:34N 36°51' E 013°05'4711.9
2017-Mar-13 14:33N 37°06' E 012°08'37312.4
2017-Mar-12 08:29N 37°10' E 004°21'1312.8
2017-Mar-12 07:30N 37°08' E 004°05'1212.8
2017-Mar-12 06:32N 37°06' E 003°50'1212.8
2017-Mar-12 05:33N 37°05' E 003°34'1312.7
2017-Mar-12 04:33N 37°03' E 003°19'1212.5
2017-Mar-12 03:34N 37°01' E 003°03'1211.9
2017-Mar-12 02:33N 36°59' E 002°48'1212.1
2017-Mar-12 01:33N 36°57' E 002°33'1212.0
2017-Mar-12 00:33N 36°55' E 002°19'1212.4
2017-Mar-11 23:33N 36°53' E 002°03'1212.3
2017-Mar-11 22:33N 36°51' E 001°48'1312.7
2017-Mar-11 21:33N 36°49' E 001°32'1313.2
2017-Mar-11 20:33N 36°47' E 001°16'1312.6
2017-Mar-11 19:33N 36°46' E 001°01'1312.6
2017-Mar-11 18:33N 36°44' E 000°45'1512.2
2017-Mar-11 17:19N 36°42' E 000°26'1012.4
2017-Mar-11 16:33N 36°40' E 000°15'1212.4
2017-Mar-11 15:33N 36°38' W 000°01'1412.1
2017-Mar-11 14:26N 36°36' W 000°17'6112.5
2017-Mar-11 09:33N 36°27' W 001°32'1412.7
2017-Mar-11 08:26N 36°25' W 001°50'1312.8
2017-Mar-11 07:27N 36°23' W 002°05'1213.1
2017-Mar-11 06:32N 36°21' W 002°20'11913.0
2017-Mar-10 21:22N 36°03' W 004°45'1214.3
2017-Mar-10 20:32N 36°02' W 004°60'1414.0
2017-Mar-10 19:33N 35°60' W 005°17'1514.6
2017-Mar-10 18:33N 35°56' W 005°34'7113.3
2017-Mar-10 13:12N 36°04' W 007°01'812.7
2017-Mar-10 12:33N 36°07' W 007°11'1312.7
2017-Mar-10 11:33N 36°10' W 007°26'1312.9
2017-Mar-10 10:33N 36°13' W 007°42'1312.8
2017-Mar-10 09:33N 36°16' W 007°57'1312.8
2017-Mar-10 08:33N 36°20' W 008°12'2512.6
2017-Mar-10 06:33N 36°26' W 008°43'1312.6
2017-Mar-10 05:33N 36°30' W 008°58'1212.3
2017-Mar-10 04:33N 36°33' W 009°12'1211.9
2017-Mar-10 03:33N 36°40' W 009°25'1212.2
2017-Mar-10 02:33N 36°50' W 009°33'1212.4
2017-Mar-10 01:33N 37°02' W 009°37'1412.2
2017-Mar-10 00:22N 37°16' W 009°41'1412.6
2017-Mar-09 23:17N 37°29' W 009°45'912.6
2017-Mar-09 22:33N 37°38' W 009°48'1312.7
2017-Mar-09 21:33N 37°51' W 009°51'1312.8
2017-Mar-09 20:33N 38°03' W 009°56'1312.7
2017-Mar-09 19:33N 38°15' W 009°60'1312.7
2017-Mar-09 18:33N 38°28' W 010°03'1312.6
2017-Mar-09 17:33N 38°40' W 010°06'1312.7
2017-Mar-09 16:33N 38°53' W 010°06'1312.9
2017-Mar-09 15:33N 39°06' W 010°06'1312.8
2017-Mar-09 14:33N 39°18' W 010°06'1312.7
2017-Mar-09 13:33N 39°31' W 010°06'1312.4
2017-Mar-09 12:29N 39°44' W 010°06'  
2017-Mar-06 19:33N 49°44' W 003°36'7 7.1
2017-Mar-06 18:30N 49°48' W 003°26'7 7.6
2017-Mar-06 17:32N 49°52' W 003°16'8 8.5
2017-Mar-06 16:33N 49°56' W 003°05'9 8.6
2017-Mar-06 15:33N 50°00' W 002°53'10 9.5
2017-Mar-06 14:33N 50°03' W 002°39'19 9.0
2017-Mar-06 12:24N 50°08' W 002°09'8 9.6
2017-Mar-06 11:33N 50°10' W 001°57'1111.2
2017-Mar-06 10:33N 50°13' W 001°40'1412.8
2017-Mar-06 09:27N 50°17' W 001°19'4014.0
2017-Mar-06 06:33N 50°28' W 000°18'1212.1
2017-Mar-06 05:33N 50°31' E 000°00'1110.5
2017-Mar-06 04:30N 50°34' E 000°17'8 8.0
2017-Mar-06 03:34N 50°36' E 000°28'7 7.0
2017-Mar-06 02:33N 50°40' E 000°38'9 9.0
2017-Mar-06 01:33N 50°45' E 000°49'10 9.7
2017-Mar-06 00:34N 50°51' E 001°02'1111.0
2017-Mar-05 23:33N 50°58' E 001°15'1111.3
2017-Mar-05 22:34N 51°05' E 001°29'1010.3
2017-Mar-05 21:34N 51°12' E 001°41'9 9.5
2017-Mar-05 20:33N 51°19' E 001°51'9 9.3
2017-Mar-05 19:33N 51°27' E 001°58'9 9.1
2017-Mar-05 18:34N 51°35' E 002°06'6210.0
2017-Mar-05 12:23N 52°03' E 003°35'911.5
2017-Mar-05 11:33N 52°03' E 003°50'9 9.5
2017-Mar-05 10:34N 51°59' E 004°04'1111.4
2017-Mar-05 09:34N 51°53' E 004°19'5 5.0
2017-Mar-05 08:34N 51°50' E 004°26'6 5.9
2017-Mar-05 07:34N 51°48' E 004°35'2 2.1
2017-Mar-05 06:34N 51°48' E 004°38'0 0.0
2017-Mar-05 05:33N 51°48' E 004°38'0 0.0
2017-Mar-05 04:34N 51°48' E 004°38'0 0.0
2017-Mar-05 03:33N 51°48' E 004°38'0 0.0
2017-Mar-05 02:33N 51°48' E 004°38'0 0.0
2017-Mar-05 01:34N 51°48' E 004°38'0 0.0
2017-Mar-05 00:33N 51°48' E 004°38'0 0.0
2017-Mar-04 23:33N 51°48' E 004°38'0 0.0
2017-Mar-04 22:33N 51°48' E 004°38'0 0.0
2017-Mar-04 21:33N 51°48' E 004°38'0 0.0
2017-Mar-04 20:34N 51°48' E 004°38'0 0.0
2017-Mar-04 19:33N 51°48' E 004°38'0 0.0
2017-Mar-04 18:34N 51°48' E 004°38'0 0.0
2017-Mar-04 17:34N 51°48' E 004°38'0 0.0
2017-Mar-04 16:33N 51°48' E 004°38'0 0.0
2017-Mar-04 15:34N 51°48' E 004°38'0 0.0
2017-Mar-04 14:33N 51°48' E 004°38'0 0.0
2017-Mar-04 13:34N 51°48' E 004°38'0 0.0
2017-Mar-04 12:34N 51°48' E 004°38'0 0.0
2017-Mar-04 11:33N 51°48' E 004°38'0 0.0
2017-Mar-04 10:33N 51°48' E 004°38'0 0.0
2017-Mar-04 09:33N 51°48' E 004°38'0 0.0
2017-Mar-04 08:34N 51°48' E 004°38'0 0.0
2017-Mar-04 07:33N 51°48' E 004°38'0 0.0
2017-Mar-04 06:33N 51°48' E 004°38'0 0.0
2017-Mar-04 05:33N 51°48' E 004°38'0 0.0
2017-Mar-04 04:33N 51°48' E 004°38'0 0.0
2017-Mar-04 03:34N 51°48' E 004°38'0 0.0
2017-Mar-04 02:34N 51°48' E 004°38'0 0.0
2017-Mar-04 01:33N 51°48' E 004°38'  

Dump ship's entire track history